createdAt,value
2014-12-31T14:31:57.576Z,21.3
2014-12-31T14:32:15.904Z,21.3
2014-12-31T14:32:34.654Z,21.3
2014-12-31T14:32:53.359Z,21.3
2014-12-31T14:33:12.062Z,21.3
2014-12-31T14:33:30.687Z,21.5
2014-12-31T14:33:49.237Z,21.4
2014-12-31T14:34:07.659Z,21.4
2014-12-31T14:34:26.440Z,21.4
2014-12-31T14:34:44.815Z,21.4
2014-12-31T14:35:03.458Z,21.4
2014-12-31T14:35:21.755Z,21.4
2014-12-31T14:35:40.442Z,21.3
2014-12-31T14:35:58.913Z,21.3
2014-12-31T14:36:17.210Z,21.3
2014-12-31T14:36:35.788Z,21.3
2014-12-31T14:36:54.397Z,21.3
2014-12-31T14:37:13.244Z,21.3
2014-12-31T14:37:31.807Z,21.3
2014-12-31T14:37:50.307Z,21.3
2014-12-31T14:38:08.871Z,21.3
2014-12-31T14:38:27.496Z,21.3
2014-12-31T14:38:46.355Z,21.2
2014-12-31T14:39:04.374Z,21.2
2014-12-31T14:39:22.718Z,21.2
2014-12-31T14:39:41.093Z,21.2
2014-12-31T14:39:59.608Z,21.2
2014-12-31T14:40:17.907Z,21.2
2014-12-31T14:40:36.235Z,21.2
2014-12-31T14:40:54.970Z,21.2
2014-12-31T14:41:13.457Z,21.2
2014-12-31T14:41:31.988Z,21.2
2014-12-31T14:41:50.504Z,21.2
2014-12-31T14:42:09.397Z,21.2
2014-12-31T14:42:27.553Z,21.2
2014-12-31T14:42:46.240Z,21.2
2014-12-31T14:43:04.647Z,21.2
2014-12-31T14:43:23.305Z,21.2
2014-12-31T14:43:41.821Z,21.2
2014-12-31T14:44:00.133Z,21.2
2014-12-31T14:44:18.449Z,21.2
2014-12-31T14:44:36.792Z,21.2
2014-12-31T14:44:55.292Z,21.2
2014-12-31T14:45:13.745Z,21.2
2014-12-31T14:45:32.247Z,21.2
2014-12-31T14:45:50.560Z,21.2
2014-12-31T14:46:09.201Z,21.2
2014-12-31T14:46:27.734Z,21.2
2014-12-31T14:46:46.390Z,21.2
2014-12-31T14:47:04.843Z,21.2
2014-12-31T14:47:23.265Z,21.2
2014-12-31T14:47:41.910Z,21.2
2014-12-31T14:48:00.207Z,21.2
2014-12-31T14:48:18.613Z,21.2
2014-12-31T14:48:36.474Z,21.2
2014-12-31T14:48:54.990Z,21.2
2014-12-31T14:49:13.302Z,21.2
2014-12-31T14:49:31.912Z,21.2
2014-12-31T14:49:50.257Z,21.2
2014-12-31T14:50:08.570Z,21.2
2014-12-31T14:50:27.273Z,21.2
2014-12-31T14:50:45.822Z,21.2
2014-12-31T14:51:08.041Z,21.2
2014-12-31T14:51:26.384Z,21.2
2014-12-31T14:51:45.009Z,21.2
2014-12-31T14:52:03.325Z,21.2
2014-12-31T14:52:22.122Z,21.2
2014-12-31T14:52:40.028Z,21.2
2014-12-31T14:52:58.547Z,21.2
2014-12-31T14:53:16.859Z,21.3
2014-12-31T14:53:35.219Z,21.3
2014-12-31T14:53:53.767Z,21.3
2014-12-31T14:54:12.299Z,21.3
2014-12-31T14:54:30.674Z,21.3
2014-12-31T14:54:49.098Z,21.3
2014-12-31T14:55:07.410Z,21.3
2014-12-31T14:55:26.019Z,21.3
2014-12-31T14:55:44.394Z,21.2
2014-12-31T14:56:02.928Z,21.3
2014-12-31T14:56:21.771Z,21.2
2014-12-31T14:56:40.365Z,21.2
2014-12-31T14:56:58.696Z,21.2
2014-12-31T14:57:17.321Z,21.2
2014-12-31T14:57:35.743Z,21.3
2014-12-31T14:57:54.434Z,21.2
2014-12-31T14:58:12.918Z,21.2
2014-12-31T14:58:31.418Z,21.2
2014-12-31T14:58:50.106Z,21.2
2014-12-31T14:59:08.795Z,21.2
2014-12-31T14:59:27.264Z,21.2
2014-12-31T14:59:45.904Z,21.2
2014-12-31T15:00:04.250Z,21.2
2014-12-31T15:00:22.688Z,21.2
2014-12-31T15:00:41.235Z,21.2
2014-12-31T15:00:59.703Z,21.3
2014-12-31T15:01:18.205Z,21.3
2014-12-31T15:01:36.971Z,21.3
2014-12-31T15:01:55.362Z,21.3
2014-12-31T15:02:14.021Z,21.3
2014-12-31T15:02:32.771Z,21.3
2014-12-31T15:02:51.599Z,21.2
2014-12-31T15:03:10.304Z,21.3
2014-12-31T15:03:28.663Z,21.2
2014-12-31T15:03:47.492Z,21.2
2014-12-31T15:04:06.210Z,21.2
2014-12-31T15:04:24.760Z,21.2
2014-12-31T15:04:43.120Z,21.2
2014-12-31T15:05:01.635Z,21.2
2014-12-31T15:05:20.247Z,21.2
2014-12-31T15:05:38.653Z,21.2
2014-12-31T15:05:57.262Z,21.2
2014-12-31T15:06:16.093Z,21.2
2014-12-31T15:06:34.062Z,21.2
2014-12-31T15:06:52.515Z,21.2
2014-12-31T15:07:11.236Z,21.2
2014-12-31T15:07:30.345Z,21.2
2014-12-31T15:07:49.002Z,21.3
2014-12-31T15:08:07.673Z,21.3
2014-12-31T15:08:26.129Z,21.4
2014-12-31T15:08:44.675Z,21.5
2014-12-31T15:09:03.300Z,21.4
2014-12-31T15:09:21.631Z,21.4
2014-12-31T15:09:40.021Z,21.5
2014-12-31T15:09:58.396Z,21.5
2014-12-31T15:10:16.774Z,21.5
2014-12-31T15:11:57.948Z,21.5
2014-12-31T15:12:16.276Z,21.5
2014-12-31T15:12:34.623Z,21.5
2014-12-31T15:12:53.389Z,21.5
2014-12-31T15:13:11.904Z,21.5
2014-12-31T15:13:30.359Z,21.5
2014-12-31T15:13:48.687Z,21.5
2014-12-31T15:14:07.094Z,21.6
2014-12-31T15:14:25.797Z,21.6
2014-12-31T15:14:44.503Z,21.6
2014-12-31T15:15:02.894Z,21.6
2014-12-31T15:15:21.565Z,21.5
2014-12-31T15:15:40.083Z,21.5
2014-12-31T15:15:58.583Z,21.5
2014-12-31T15:16:16.255Z,21.5
2014-12-31T15:16:34.942Z,21.5
2014-12-31T15:16:53.288Z,21.5
2014-12-31T15:17:11.851Z,21.5
2014-12-31T15:17:30.163Z,21.5
2014-12-31T15:17:48.651Z,21.5
2014-12-31T15:18:06.963Z,21.5
2014-12-31T15:18:25.354Z,21.5
2014-12-31T15:18:43.776Z,21.5
2014-12-31T15:19:02.324Z,21.5
2014-12-31T15:19:20.840Z,21.5
2014-12-31T15:19:39.356Z,21.5
2014-12-31T15:19:57.921Z,21.5
2014-12-31T15:20:16.327Z,21.5
2014-12-31T15:20:34.671Z,21.5
2014-12-31T15:20:52.984Z,21.5
2014-12-31T15:21:11.377Z,21.5
2014-12-31T15:21:29.940Z,21.5
2014-12-31T15:21:48.284Z,21.5
2014-12-31T15:22:06.645Z,21.6
2014-12-31T15:22:25.442Z,21.6
2014-12-31T15:22:47.161Z,21.7
2014-12-31T15:23:05.539Z,21.7
2014-12-31T15:23:24.085Z,21.6
2014-12-31T15:23:42.757Z,21.7
2014-12-31T15:24:01.429Z,21.6
2014-12-31T15:24:20.087Z,21.6
2014-12-31T15:24:38.681Z,21.6
2014-12-31T15:24:57.244Z,21.6
2014-12-31T15:25:15.668Z,21.6
2014-12-31T15:25:34.011Z,21.6
2014-12-31T15:25:52.886Z,21.6
2014-12-31T15:26:11.591Z,21.6
2014-12-31T15:26:30.263Z,21.6
2014-12-31T15:26:48.748Z,21.5
2014-12-31T15:27:07.266Z,21.5
2014-12-31T15:27:25.626Z,21.6
2014-12-31T15:27:44.001Z,21.5
2014-12-31T15:28:02.532Z,21.5
2014-12-31T15:28:21.065Z,21.5
2014-12-31T15:28:39.409Z,21.5
2014-12-31T15:28:57.753Z,21.5
2014-12-31T15:29:16.317Z,21.5
2014-12-31T15:29:34.864Z,21.5
2014-12-31T15:29:53.411Z,21.5
2014-12-31T15:30:12.055Z,21.5
2014-12-31T15:30:30.758Z,21.6
2014-12-31T15:30:49.414Z,21.6
2014-12-31T15:31:07.976Z,21.6
2014-12-31T15:31:26.744Z,21.5
2014-12-31T15:31:45.260Z,21.6
2014-12-31T15:32:03.900Z,21.6
2014-12-31T15:32:22.731Z,21.6
2014-12-31T15:32:41.200Z,21.5
2014-12-31T15:32:59.731Z,21.5
2014-12-31T15:33:18.513Z,21.5
2014-12-31T15:33:36.999Z,21.5
2014-12-31T15:33:55.515Z,21.5
2014-12-31T15:34:14.171Z,21.5
2014-12-31T15:34:35.705Z,21.5
2014-12-31T15:34:54.611Z,21.5
2014-12-31T15:35:13.283Z,21.5
2014-12-31T15:35:31.817Z,21.5
2014-12-31T15:35:50.473Z,21.5
2014-12-31T15:36:08.785Z,21.5
2014-12-31T15:36:27.473Z,21.5
2014-12-31T15:36:46.053Z,21.6
2014-12-31T15:37:04.381Z,21.5
2014-12-31T15:37:23.084Z,21.6
2014-12-31T15:37:41.681Z,21.6
2014-12-31T15:38:00.259Z,21.6
2014-12-31T15:38:18.743Z,21.5
2014-12-31T15:38:37.355Z,21.5
2014-12-31T15:38:55.902Z,21.5
2014-12-31T15:39:14.417Z,21.5
2014-12-31T15:39:33.122Z,21.5
2014-12-31T15:39:51.560Z,21.5
2014-12-31T15:40:10.326Z,21.5
2014-12-31T15:40:28.919Z,21.5
2014-12-31T15:40:47.344Z,21.6
2014-12-31T15:41:05.704Z,21.7
2014-12-31T15:41:24.297Z,21.6
2014-12-31T15:41:43.018Z,21.6
2014-12-31T15:42:01.846Z,21.6
2014-12-31T15:42:20.315Z,21.6
2014-12-31T15:42:38.940Z,21.6
2014-12-31T15:42:57.754Z,21.6
2014-12-31T15:43:16.286Z,21.6
2014-12-31T15:43:34.770Z,21.5
2014-12-31T15:43:53.336Z,21.5
2014-12-31T15:44:12.336Z,21.5
2014-12-31T15:44:31.132Z,21.5
2014-12-31T15:44:49.492Z,21.5
2014-12-31T15:45:08.306Z,21.5
2014-12-31T15:45:26.728Z,21.5
2014-12-31T15:45:45.525Z,21.5
2014-12-31T15:46:04.230Z,21.6
2014-12-31T15:46:22.808Z,21.6
2014-12-31T15:46:41.340Z,21.7
2014-12-31T15:46:59.905Z,21.7
2014-12-31T15:47:18.639Z,21.8
2014-12-31T15:47:36.327Z,21.8
2014-12-31T15:47:54.905Z,21.9
2014-12-31T15:48:13.705Z,21.9
2014-12-31T15:48:32.142Z,21.9
2014-12-31T15:48:50.674Z,21.9
2014-12-31T15:49:09.129Z,22
2014-12-31T15:49:27.676Z,22
2014-12-31T15:49:46.363Z,22
2014-12-31T15:50:05.194Z,22.1
2014-12-31T15:50:24.085Z,22
2014-12-31T15:50:42.397Z,22.1
2014-12-31T15:51:00.759Z,22.1
2014-12-31T15:51:19.353Z,22.1
2014-12-31T15:51:37.837Z,22.1
2014-12-31T15:51:56.337Z,22.2
2014-12-31T15:52:14.808Z,22.1
2014-12-31T15:52:33.761Z,22.1
2014-12-31T15:52:52.339Z,22.1
2014-12-31T15:53:10.716Z,22.1
2014-12-31T15:53:28.450Z,22.1
2014-12-31T15:53:46.778Z,22.1
2014-12-31T15:54:04.703Z,22.2
2014-12-31T15:54:23.297Z,22.2
2014-12-31T15:54:41.969Z,22.2
2014-12-31T15:55:00.453Z,22.2
2014-12-31T15:55:18.768Z,22.2
2014-12-31T15:55:37.440Z,22.2
2014-12-31T15:55:55.846Z,22.2
2014-12-31T15:56:14.410Z,22.2
2014-12-31T15:56:32.864Z,22.2
2014-12-31T15:56:51.395Z,22.2
2014-12-31T15:57:09.242Z,22.2
2014-12-31T15:57:27.710Z,22.3
2014-12-31T15:57:46.226Z,22.3
2014-12-31T15:58:04.648Z,22.4
2014-12-31T15:58:23.212Z,22.5
2014-12-31T15:58:41.744Z,22.6
2014-12-31T15:59:00.244Z,22.6
2014-12-31T15:59:18.636Z,22.5
2014-12-31T15:59:37.542Z,22.5
2014-12-31T15:59:55.995Z,22.5
2014-12-31T16:00:14.375Z,22.5
2014-12-31T16:00:32.828Z,22.5
2014-12-31T16:00:51.391Z,22.4
2014-12-31T16:01:10.141Z,22.4
2014-12-31T16:01:28.582Z,22.4
2014-12-31T16:01:47.222Z,22.4
2014-12-31T16:02:06.035Z,22.4
2014-12-31T16:02:24.604Z,22.3
2014-12-31T16:02:43.010Z,22.3
2014-12-31T16:03:01.323Z,22.3
2014-12-31T16:03:20.010Z,22.3
2014-12-31T16:03:38.590Z,22.3
2014-12-31T16:03:56.965Z,22.3
2014-12-31T16:04:15.558Z,22.3
2014-12-31T16:04:34.161Z,22.3
2014-12-31T16:04:52.911Z,22.3
2014-12-31T16:05:11.833Z,22.3
2014-12-31T16:05:30.302Z,22.3
2014-12-31T16:05:48.858Z,22.3
2014-12-31T16:06:07.373Z,22.3
2014-12-31T16:06:25.951Z,22.3
2014-12-31T16:06:44.461Z,22.3
2014-12-31T16:07:02.993Z,22.3
2014-12-31T16:07:21.649Z,22.3
2014-12-31T16:07:40.352Z,22.3
2014-12-31T16:07:58.782Z,22.3
2014-12-31T16:08:17.172Z,22.3
2014-12-31T16:08:35.766Z,22.3
2014-12-31T16:08:54.476Z,22.4
2014-12-31T16:09:13.023Z,22.4
2014-12-31T16:09:31.633Z,22.4
2014-12-31T16:09:50.320Z,22.3
2014-12-31T16:10:08.841Z,22.3
2014-12-31T16:10:27.231Z,22.3
2014-12-31T16:10:45.794Z,22.3
2014-12-31T16:11:04.315Z,22.3
2014-12-31T16:11:22.753Z,22.3
2014-12-31T16:11:40.847Z,22.3
2014-12-31T16:11:59.315Z,22.3
2014-12-31T16:12:17.757Z,22.3
2014-12-31T16:12:36.132Z,22.3
2014-12-31T16:12:54.507Z,22.3
2014-12-31T16:13:12.823Z,22.3
2014-12-31T16:13:31.542Z,22.3
2014-12-31T16:13:50.198Z,22.3
2014-12-31T16:14:08.781Z,22.3
2014-12-31T16:14:27.124Z,22.5
2014-12-31T16:14:45.640Z,22.6
2014-12-31T16:15:04.346Z,22.6
2014-12-31T16:15:23.002Z,22.5
2014-12-31T16:15:41.799Z,22.7
2014-12-31T16:16:00.330Z,22.7
2014-12-31T16:16:18.708Z,22.6
2014-12-31T16:16:36.990Z,22.6
2014-12-31T16:16:55.458Z,22.5
2014-12-31T16:17:14.056Z,22.4
2014-12-31T16:17:32.775Z,22.4
2014-12-31T16:17:51.369Z,22.4
2014-12-31T16:18:10.340Z,22.4
2014-12-31T16:18:28.887Z,22.4
2014-12-31T16:18:47.419Z,22.4
2014-12-31T16:19:06.108Z,22.4
2014-12-31T16:19:23.921Z,22.4
2014-12-31T16:19:42.436Z,22.4
2014-12-31T16:20:00.858Z,22.3
2014-12-31T16:20:19.532Z,22.3
2014-12-31T16:20:38.141Z,22.3
2014-12-31T16:20:56.548Z,22.3
2014-12-31T16:21:14.879Z,22.3
2014-12-31T16:21:33.957Z,22.3
2014-12-31T16:21:52.394Z,22.2
2014-12-31T16:22:10.082Z,22.2
2014-12-31T16:22:28.741Z,22.2
2014-12-31T16:22:46.710Z,22.2
2014-12-31T16:23:05.382Z,22.2
2014-12-31T16:23:23.759Z,22.2
2014-12-31T16:23:42.556Z,22.2
2014-12-31T16:24:01.102Z,22.2
2014-12-31T16:24:19.852Z,22.2
2014-12-31T16:24:38.558Z,22.2
2014-12-31T16:24:56.901Z,22.2
2014-12-31T16:25:15.229Z,22.2
2014-12-31T16:25:33.795Z,22.3
2014-12-31T16:25:52.264Z,22.2
2014-12-31T16:26:10.311Z,22.2
2014-12-31T16:26:28.826Z,22.2
2014-12-31T16:26:46.564Z,22.2
2014-12-31T16:27:04.892Z,22.3
2014-12-31T16:27:23.548Z,22.2
2014-12-31T16:27:41.924Z,22.3
2014-12-31T16:28:00.565Z,22.3
2014-12-31T16:28:18.971Z,22.2
2014-12-31T16:28:37.377Z,22.2
2014-12-31T16:28:55.708Z,22.2
2014-12-31T16:29:14.349Z,22.2
2014-12-31T16:29:32.802Z,22.2
2014-12-31T16:29:51.633Z,22.2
2014-12-31T16:30:10.180Z,22.2
2014-12-31T16:30:28.664Z,22.2
2014-12-31T16:30:47.258Z,22.2
2014-12-31T16:31:05.823Z,22.2
2014-12-31T16:31:24.354Z,22.2
2014-12-31T16:31:42.901Z,22.2
2014-12-31T16:32:01.451Z,22.2
2014-12-31T16:32:19.810Z,22.2
2014-12-31T16:32:38.263Z,22.2
2014-12-31T16:32:55.982Z,22.2
2014-12-31T16:33:14.562Z,22.2
2014-12-31T16:33:33.078Z,22.2
2014-12-31T16:33:51.906Z,22.2
2014-12-31T16:34:10.565Z,22.3
2014-12-31T16:34:29.252Z,22.3
2014-12-31T16:34:47.581Z,22.3
2014-12-31T16:35:06.286Z,22.3
2014-12-31T16:35:24.754Z,22.3
2014-12-31T16:35:43.395Z,22.3
2014-12-31T16:36:01.926Z,22.6
2014-12-31T16:36:20.569Z,22.6
2014-12-31T16:36:38.381Z,22.6
2014-12-31T16:36:57.085Z,22.5
2014-12-31T16:37:16.009Z,22.5
2014-12-31T16:37:34.572Z,22.5
2014-12-31T16:37:53.244Z,22.4
2014-12-31T16:38:11.949Z,22.4
